Time;durP1;ratioP1;P1;durP2;ratioP2;P2;SDS_P1;SDS_P2;PMS_P1;PMS_P2;Temp;Humidity;BMP_temperature;BMP_pressure;BME280_temperature;BME280_humidity;BME280_pressure;Samples;Min_cycle;Max_cycle;Signal;HPM_P1;HPM_P2
2021/07/22 00:00:16;;;;;;;41.97;24.15;;;;;;;14.88;100.00;102267.19;5209530;28;20028;-79
2021/07/22 00:02:48;;;;;;;46.67;22.95;;;;;;;14.85;100.00;102268.34;5221803;28;20487;-79
2021/07/22 00:05:19;;;;;;;45.92;24.55;;;;;;;14.85;100.00;102267.50;5220612;28;20108;-80
2021/07/22 00:07:50;;;;;;;49.40;25.83;;;;;;;14.84;100.00;102265.81;5215095;28;20614;-80
2021/07/22 00:10:21;;;;;;;46.50;24.30;;;;;;;14.83;100.00;102256.84;5215200;28;20021;-79
2021/07/22 00:12:51;;;;;;;54.83;26.38;;;;;;;14.81;100.00;102258.00;5211189;28;20075;-79
2021/07/22 00:15:22;;;;;;;49.63;25.83;;;;;;;14.79;100.00;102263.59;5209857;28;20021;-79
2021/07/22 00:17:52;;;;;;;55.00;27.23;;;;;;;14.77;100.00;102254.81;5194063;28;20025;-80
2021/07/22 00:20:22;;;;;;;54.70;28.33;;;;;;;14.76;100.00;102262.06;5214922;28;20392;-80
2021/07/22 00:22:53;;;;;;;50.25;26.77;;;;;;;14.74;100.00;102252.41;5213880;28;20117;-80
2021/07/22 00:25:23;;;;;;;48.45;28.63;;;;;;;14.73;100.00;102258.81;5209397;28;20461;-80
2021/07/22 00:27:54;;;;;;;56.80;29.38;;;;;;;14.69;100.00;102266.38;5209727;28;20036;-80
2021/07/22 00:30:24;;;;;;;50.03;26.77;;;;;;;14.66;100.00;102257.75;5191409;28;20017;-80
2021/07/22 00:32:57;;;;;;;55.67;27.95;;;;;;;14.63;100.00;102255.38;5208875;28;20021;-80
2021/07/22 00:35:28;;;;;;;49.53;28.10;;;;;;;14.61;100.00;102260.94;5196625;28;20036;-80
2021/07/22 00:37:59;;;;;;;63.00;31.85;;;;;;;14.57;100.00;102248.78;5215442;28;20099;-80
2021/07/22 00:40:29;;;;;;;59.85;31.60;;;;;;;14.52;100.00;102256.50;5211279;28;20159;-80
2021/07/22 00:43:01;;;;;;;66.22;33.78;;;;;;;14.49;100.00;102256.78;5208580;28;20036;-80
2021/07/22 00:45:31;;;;;;;65.20;31.92;;;;;;;14.45;100.00;102256.22;5211041;28;20079;-81
2021/07/22 00:48:02;;;;;;;71.40;33.67;;;;;;;14.44;100.00;102245.59;5197460;28;20427;-80
2021/07/22 00:50:33;;;;;;;63.20;32.25;;;;;;;14.42;100.00;102250.31;5214004;28;20044;-80
2021/07/22 00:53:03;;;;;;;66.05;32.80;;;;;;;14.40;100.00;102257.72;5208756;28;20032;-80
2021/07/22 00:55:34;;;;;;;68.68;33.88;;;;;;;14.35;100.00;102247.38;5191241;28;20112;-80
2021/07/22 00:58:04;;;;;;;66.32;33.63;;;;;;;14.32;100.00;102255.81;5211471;28;20036;-80
2021/07/22 01:00:34;;;;;;;70.32;34.28;;;;;;;14.29;100.00;102248.00;5207520;28;20112;-80
2021/07/22 01:03:05;;;;;;;67.88;35.97;;;;;;;14.25;100.00;102250.16;5204353;28;20060;-79
2021/07/22 01:05:36;;;;;;;69.40;34.60;;;;;;;14.24;100.00;102240.38;5207485;28;20025;-80
2021/07/22 01:08:07;;;;;;;62.83;32.65;;;;;;;14.23;100.00;102244.09;5213406;28;20116;-80
2021/07/22 01:10:43;;;;;;;73.97;34.78;;;;;;;14.22;100.00;102244.25;5208223;28;20024;-80
2021/07/22 01:13:18;;;;;;;78.13;36.20;;;;;;;14.19;100.00;102241.84;5208542;28;20126;-79
2021/07/22 01:15:49;;;;;;;75.32;36.80;;;;;;;14.19;100.00;102245.41;5215162;28;20060;-80
2021/07/22 01:18:19;;;;;;;63.08;33.42;;;;;;;14.17;100.00;102242.03;5215254;28;20108;-80
2021/07/22 01:20:50;;;;;;;69.70;36.05;;;;;;;14.12;100.00;102238.94;5210466;28;20028;-80
2021/07/22 01:23:20;;;;;;;77.20;37.60;;;;;;;14.10;100.00;102238.22;5190683;28;20158;-80
2021/07/22 01:25:51;;;;;;;79.85;37.33;;;;;;;14.11;100.00;102244.50;5212148;28;20118;-79
2021/07/22 01:28:22;;;;;;;73.60;34.63;;;;;;;14.08;100.00;102245.66;5215051;28;20045;-81
2021/07/22 01:30:52;;;;;;;66.28;33.30;;;;;;;14.04;100.00;102236.16;5212509;28;20247;-80
2021/07/22 01:33:23;;;;;;;75.80;35.83;;;;;;;13.99;100.00;102236.63;5208276;28;20387;-80
2021/07/22 01:35:54;;;;;;;77.07;37.40;;;;;;;13.97;100.00;102240.50;5209671;28;20061;-80
2021/07/22 01:38:25;;;;;;;73.63;36.85;;;;;;;13.95;100.00;102231.69;5215173;28;20021;-79
2021/07/22 01:40:56;;;;;;;71.03;34.45;;;;;;;13.92;100.00;102242.81;5196300;28;20475;-80
2021/07/22 01:43:26;;;;;;;72.57;32.90;;;;;;;13.86;100.00;102238.03;5175320;28;20043;-80
2021/07/22 01:45:57;;;;;;;69.97;34.22;;;;;;;13.83;100.00;102238.34;5191695;28;20061;-80
2021/07/22 01:48:28;;;;;;;69.28;34.78;;;;;;;13.78;100.00;102241.50;5216832;28;20043;-80
2021/07/22 01:50:59;;;;;;;69.47;34.28;;;;;;;13.78;100.00;102229.84;5200290;28;20033;-80
2021/07/22 01:53:30;;;;;;;65.45;32.08;;;;;;;13.74;100.00;102229.31;5215479;28;20033;-80
2021/07/22 01:56:02;;;;;;;73.72;33.63;;;;;;;13.71;100.00;102237.72;5210817;28;20095;-80
2021/07/22 01:58:40;;;;;;;68.55;33.67;;;;;;;13.70;100.00;102239.56;5218649;28;20036;-80
2021/07/22 02:01:14;;;;;;;65.30;32.20;;;;;;;13.68;100.00;102236.16;5216642;28;20522;-80
2021/07/22 02:03:44;;;;;;;69.55;32.63;;;;;;;13.65;100.00;102233.75;5219273;28;20025;-80
2021/07/22 02:06:16;;;;;;;61.05;31.15;;;;;;;13.63;100.00;102230.38;5213876;28;20044;-80
2021/07/22 02:08:47;;;;;;;60.78;30.50;;;;;;;13.63;100.00;102233.06;5218359;28;20151;-80
2021/07/22 02:11:29;;;;;;;73.25;33.80;;;;;;;13.62;100.00;102239.47;5215684;28;20056;-80
2021/07/22 02:14:00;;;;;;;73.88;32.45;;;;;;;13.62;100.00;102246.72;5211777;28;20079;-80
2021/07/22 02:16:31;;;;;;;64.22;29.75;;;;;;;13.60;100.00;102244.16;5212506;28;20084;-80
2021/07/22 02:19:01;;;;;;;64.50;31.88;;;;;;;13.58;100.00;102239.94;5217324;28;20033;-80
2021/07/22 02:21:33;;;;;;;62.40;28.88;;;;;;;13.57;100.00;102240.94;5183630;28;20047;-80
2021/07/22 02:24:05;;;;;;;62.65;30.75;;;;;;;13.53;100.00;102237.69;5212505;28;20078;-80
2021/07/22 02:26:36;;;;;;;62.97;29.27;;;;;;;13.49;100.00;102241.69;5211858;28;20021;-80
2021/07/22 02:29:07;;;;;;;62.30;30.15;;;;;;;13.46;100.00;102236.59;5214617;28;20079;-80
2021/07/22 02:31:38;;;;;;;64.70;30.23;;;;;;;13.43;100.00;102240.44;5217455;28;20484;-80
2021/07/22 02:34:08;;;;;;;70.78;32.67;;;;;;;13.39;100.00;102230.09;5214947;28;20396;-80
2021/07/22 02:36:39;;;;;;;71.53;32.92;;;;;;;13.40;100.00;102235.38;5194817;28;20490;-80
2021/07/22 02:39:09;;;;;;;70.57;35.03;;;;;;;13.40;100.00;102239.88;5194248;28;20046;-80
2021/07/22 02:41:40;;;;;;;65.53;32.40;;;;;;;13.38;100.00;102242.75;5217353;28;20025;-80
2021/07/22 02:44:10;;;;;;;70.57;31.95;;;;;;;13.35;100.00;102243.03;5198375;28;20059;-80
2021/07/22 02:46:41;;;;;;;65.60;32.05;;;;;;;13.32;100.00;102245.19;5209563;28;20009;-80
2021/07/22 02:49:11;;;;;;;79.00;35.90;;;;;;;13.30;100.00;102244.47;5192150;28;20138;-80
2021/07/22 02:51:41;;;;;;;76.25;33.97;;;;;;;13.27;100.00;102250.19;5216470;28;20053;-80
2021/07/22 02:54:12;;;;;;;76.22;34.78;;;;;;;13.26;100.00;102240.41;5199396;28;20025;-80
2021/07/22 02:56:43;;;;;;;78.97;36.92;;;;;;;13.25;100.00;102244.94;5172027;28;20032;-80
2021/07/22 02:59:13;;;;;;;70.60;34.50;;;;;;;13.24;100.00;102243.25;5214939;28;20057;-80
2021/07/22 03:01:44;;;;;;;69.97;35.95;;;;;;;13.24;100.00;102245.94;5197172;28;20029;-81
2021/07/22 03:04:14;;;;;;;67.20;31.63;;;;;;;13.21;100.00;102241.72;5223520;28;20086;-81
2021/07/22 03:06:44;;;;;;;73.97;34.45;;;;;;;13.21;100.00;102240.81;5208929;28;20014;-80
2021/07/22 03:09:15;;;;;;;66.82;33.53;;;;;;;13.18;100.00;102236.56;5216068;28;20108;-80
2021/07/22 03:11:47;;;;;;;74.15;33.95;;;;;;;13.17;100.00;102244.81;5199323;28;20319;-81
2021/07/22 03:14:17;;;;;;;68.03;32.70;;;;;;;13.13;100.00;102241.56;5211260;28;20546;-80
2021/07/22 03:16:48;;;;;;;65.55;33.28;;;;;;;13.09;100.00;102242.00;5209469;28;20515;-80
2021/07/22 03:19:19;;;;;;;73.07;33.25;;;;;;;13.07;100.00;102244.84;5184781;28;20108;-80
2021/07/22 03:21:50;;;;;;;77.65;35.55;;;;;;;13.08;100.00;102240.31;5216678;28;20052;-81
2021/07/22 03:24:20;;;;;;;67.53;32.35;;;;;;;13.06;100.00;102240.47;5213349;28;20028;-80
2021/07/22 03:26:52;;;;;;;63.53;32.30;;;;;;;13.03;100.00;102243.44;5185377;28;20105;-80
2021/07/22 03:29:22;;;;;;;71.40;32.50;;;;;;;13.01;100.00;102234.69;5214045;28;20487;-80
2021/07/22 03:31:53;;;;;;;74.82;34.85;;;;;;;13.01;100.00;102232.00;5192769;28;20040;-80
2021/07/22 03:34:23;;;;;;;79.88;35.53;;;;;;;13.04;100.00;102238.91;5210624;28;20029;-80
2021/07/22 03:36:54;;;;;;;71.32;33.08;;;;;;;13.04;100.00;102237.06;5216366;28;20475;-80
2021/07/22 03:39:24;;;;;;;66.97;33.33;;;;;;;13.03;100.00;102238.06;5215353;28;20526;-80
2021/07/22 03:41:55;;;;;;;64.70;31.33;;;;;;;13.02;100.00;102228.28;5203154;28;20554;-80
2021/07/22 03:44:26;;;;;;;67.70;30.52;;;;;;;13.01;100.00;102231.13;5215493;28;20060;-80
2021/07/22 03:46:56;;;;;;;63.05;30.98;;;;;;;13.01;100.00;102231.13;5212827;28;20032;-80
2021/07/22 03:49:27;;;;;;;62.35;31.67;;;;;;;13.01;100.00;102232.00;5208993;28;20064;-80
2021/07/22 03:51:57;;;;;;;62.40;30.20;;;;;;;13.03;100.00;102235.38;5212612;28;20030;-80
2021/07/22 03:54:28;;;;;;;57.55;28.85;;;;;;;13.04;100.00;102228.97;5198027;28;20025;-81
2021/07/22 03:57:00;;;;;;;65.47;30.40;;;;;;;13.06;100.00;102236.94;5205390;28;20025;-81
2021/07/22 03:59:31;;;;;;;62.10;27.83;;;;;;;13.06;100.00;102235.09;5215050;28;20432;-81
2021/07/22 04:02:02;;;;;;;63.65;31.75;;;;;;;13.08;100.00;102235.78;5215473;28;20075;-80
2021/07/22 04:04:33;;;;;;;58.45;32.03;;;;;;;13.08;100.00;102233.06;5210110;28;20135;-80
2021/07/22 04:07:03;;;;;;;65.07;32.38;;;;;;;13.11;100.00;102235.47;5207566;28;20108;-80
2021/07/22 04:09:34;;;;;;;70.10;31.95;;;;;;;13.16;100.00;102233.19;5212544;28;20079;-81
2021/07/22 04:12:05;;;;;;;80.22;35.85;;;;;;;13.23;100.00;102241.53;5197404;28;20053;-81
2021/07/22 04:14:36;;;;;;;66.97;32.78;;;;;;;13.28;100.00;102241.94;5212938;28;20403;-81
2021/07/22 04:17:12;;;;;;;65.18;32.40;;;;;;;13.34;100.00;102237.78;5209768;28;20121;-81
2021/07/22 04:19:43;;;;;;;71.55;33.92;;;;;;;13.43;100.00;102235.03;5209499;28;20091;-80
2021/07/22 04:22:15;;;;;;;72.95;33.20;;;;;;;13.55;100.00;102241.06;5216339;28;20033;-80
2021/07/22 04:24:45;;;;;;;77.88;37.10;;;;;;;13.68;100.00;102246.94;5215083;28;20033;-81
2021/07/22 04:27:16;;;;;;;73.28;34.13;;;;;;;13.80;100.00;102238.63;5210354;28;20119;-81
2021/07/22 04:29:46;;;;;;;67.35;33.42;;;;;;;13.91;100.00;102239.25;5208392;28;20041;-81
2021/07/22 04:32:17;;;;;;;79.90;38.42;;;;;;;14.02;100.00;102246.28;5214200;28;20476;-81
2021/07/22 04:34:47;;;;;;;74.22;37.40;;;;;;;14.15;100.00;102249.41;5215033;28;20057;-81
2021/07/22 04:37:18;;;;;;;89.22;40.58;;;;;;;14.24;100.00;102240.38;5212088;28;20017;-81
2021/07/22 04:39:48;;;;;;;81.15;38.80;;;;;;;14.37;100.00;102252.63;5208433;28;20053;-81
2021/07/22 04:42:19;;;;;;;79.88;40.20;;;;;;;14.45;100.00;102249.97;5211130;28;20029;-81
2021/07/22 04:44:49;;;;;;;75.47;38.60;;;;;;;14.55;100.00;102256.16;5215065;28;20052;-82
2021/07/22 04:47:19;;;;;;;87.15;40.72;;;;;;;14.62;100.00;102251.00;5214812;28;20112;-81
2021/07/22 04:49:50;;;;;;;81.88;37.47;;;;;;;14.73;100.00;102250.72;5208050;28;20037;-81
2021/07/22 04:52:20;;;;;;;75.78;38.55;;;;;;;14.83;100.00;102264.97;5209452;28;20026;-81
2021/07/22 04:54:51;;;;;;;82.78;38.00;;;;;;;14.93;100.00;102256.75;5214413;28;20392;-81
2021/07/22 04:57:21;;;;;;;78.70;37.72;;;;;;;15.02;100.00;102261.19;5206039;28;20107;-81
2021/07/22 04:59:52;;;;;;;76.53;36.83;;;;;;;15.10;100.00;102268.47;5195309;28;20033;-81
2021/07/22 05:02:22;;;;;;;76.07;36.97;;;;;;;15.16;100.00;102259.72;5217538;28;20036;-81
2021/07/22 05:04:53;;;;;;;67.10;33.38;;;;;;;15.23;100.00;102269.72;5222294;28;20059;-81
2021/07/22 05:07:23;;;;;;;73.25;36.35;;;;;;;15.36;100.00;102263.00;5209201;28;20053;-81
2021/07/22 05:09:54;;;;;;;70.20;33.65;;;;;;;15.42;100.00;102260.53;5209424;28;20033;-81
2021/07/22 05:12:24;;;;;;;73.47;37.72;;;;;;;15.57;100.00;102266.16;5214008;28;20535;-81
2021/07/22 05:14:55;;;;;;;66.35;34.63;;;;;;;15.70;100.00;102271.09;5201481;28;20044;-81
2021/07/22 05:17:25;;;;;;;67.15;34.25;;;;;;;15.83;100.00;102274.19;5215320;28;20037;-81
2021/07/22 05:19:55;;;;;;;69.43;33.13;;;;;;;15.91;100.00;102273.34;5213892;28;20029;-81
2021/07/22 05:22:26;;;;;;;72.53;35.35;;;;;;;16.05;100.00;102275.38;5213806;28;20487;-81
2021/07/22 05:24:56;;;;;;;68.95;33.05;;;;;;;16.12;100.00;102265.59;5212630;28;20028;-81
2021/07/22 05:27:27;;;;;;;70.97;34.85;;;;;;;16.23;100.00;102262.56;5216720;28;20037;-81
2021/07/22 05:29:57;;;;;;;64.10;34.40;;;;;;;16.27;100.00;102263.91;5217789;28;20029;-81
2021/07/22 05:32:28;;;;;;;70.10;37.15;;;;;;;16.48;100.00;102263.38;5216459;28;20044;-81
2021/07/22 05:34:58;;;;;;;81.55;37.42;;;;;;;17.12;100.00;102266.16;5212744;28;20017;-81
2021/07/22 05:37:30;;;;;;;83.47;36.97;;;;;;;18.01;100.00;102262.13;5196180;28;20541;-81
2021/07/22 05:40:01;;;;;;;83.75;35.72;;;;;;;18.76;100.00;102260.47;5218039;28;20092;-81
2021/07/22 05:42:31;;;;;;;73.15;33.70;;;;;;;19.72;100.00;102269.50;5218167;28;20105;-81
2021/07/22 05:45:02;;;;;;;68.93;32.22;;;;;;;20.53;100.00;102264.66;5213374;28;20052;-81
2021/07/22 05:47:32;;;;;;;70.47;31.63;;;;;;;21.07;100.00;102266.69;5224039;28;20115;-81
2021/07/22 05:50:03;;;;;;;76.03;33.38;;;;;;;21.34;100.00;102263.09;5213402;28;20034;-82
2021/07/22 05:52:33;;;;;;;68.68;30.23;;;;;;;21.80;100.00;102261.56;5211989;28;20077;-81
2021/07/22 05:55:05;;;;;;;63.10;28.27;;;;;;;22.77;100.00;102266.47;5215512;28;20064;-81
2021/07/22 05:57:36;;;;;;;61.05;30.30;;;;;;;22.68;100.00;102271.31;5213072;28;20029;-81
2021/07/22 06:00:07;;;;;;;63.83;28.73;;;;;;;22.88;100.00;102273.19;5212630;28;20484;-81
2021/07/22 06:02:37;;;;;;;60.72;28.33;;;;;;;22.90;100.00;102271.94;5222873;28;20075;-81
2021/07/22 06:05:08;;;;;;;58.60;28.23;;;;;;;23.38;100.00;102276.22;5205547;28;20044;-81
2021/07/22 06:07:39;;;;;;;52.85;27.17;;;;;;;23.43;100.00;102274.50;5212216;28;20051;-81
2021/07/22 06:10:10;;;;;;;60.15;27.83;;;;;;;23.51;100.00;102276.16;5210284;28;20184;-82
2021/07/22 06:12:41;;;;;;;54.83;26.83;;;;;;;24.03;100.00;102279.69;5216847;28;20063;-81
2021/07/22 06:15:11;;;;;;;56.38;27.40;;;;;;;23.67;100.00;102277.59;5217658;28;20037;-82
2021/07/22 06:17:43;;;;;;;62.58;30.17;;;;;;;23.35;100.00;102282.97;5196790;28;20035;-82
2021/07/22 06:20:14;;;;;;;50.67;25.33;;;;;;;24.47;100.00;102281.50;5210592;28;20017;-82
2021/07/22 06:22:44;;;;;;;52.72;25.25;;;;;;;24.45;100.00;102283.63;5214178;28;20075;-81
2021/07/22 06:25:15;;;;;;;58.85;26.92;;;;;;;24.49;100.00;102278.50;5200624;28;20734;-82
2021/07/22 06:27:45;;;;;;;53.13;25.98;;;;;;;24.14;100.00;102272.66;5216547;28;20029;-81
2021/07/22 06:30:16;;;;;;;55.08;26.50;;;;;;;24.14;100.00;102273.47;5210317;28;20376;-81
2021/07/22 06:32:46;;;;;;;57.83;27.88;;;;;;;23.70;100.00;102274.44;5193529;28;20595;-81
2021/07/22 06:35:17;;;;;;;53.08;25.80;;;;;;;23.53;100.00;102274.88;5217534;28;20112;-81
2021/07/22 06:37:49;;;;;;;56.28;27.08;;;;;;;24.03;100.00;102275.03;5218900;28;20116;-81
2021/07/22 06:40:19;;;;;;;52.33;24.90;;;;;;;23.87;100.00;102270.09;5214278;28;20036;-81
2021/07/22 06:42:50;;;;;;;51.03;25.08;;;;;;;23.76;100.00;102268.06;5217363;28;20037;-81
2021/07/22 06:45:20;;;;;;;46.67;24.08;;;;;;;23.49;100.00;102270.91;5214494;28;20040;-81
2021/07/22 06:47:51;;;;;;;47.42;24.38;;;;;;;23.62;100.00;102272.72;5211496;28;20033;-81
2021/07/22 06:50:21;;;;;;;45.22;23.80;;;;;;;23.62;100.00;102277.38;5212324;28;20467;-81
2021/07/22 06:52:52;;;;;;;49.17;24.27;;;;;;;23.16;100.00;102282.00;5208727;28;20028;-81
2021/07/22 06:55:22;;;;;;;45.47;24.05;;;;;;;22.76;100.00;102267.53;5195006;28;20021;-80
2021/07/22 06:57:52;;;;;;;47.97;23.65;;;;;;;22.25;100.00;102276.38;5206376;28;20418;-81
2021/07/22 07:00:23;;;;;;;50.30;23.90;;;;;;;21.84;100.00;102271.88;5215838;28;20056;-81
2021/07/22 07:02:53;;;;;;;49.30;23.92;;;;;;;21.55;100.00;102269.47;5211380;28;20032;-81
2021/07/22 07:05:24;;;;;;;50.30;23.95;;;;;;;21.34;100.00;102274.03;5204734;28;20032;-81
2021/07/22 07:07:55;;;;;;;51.78;23.77;;;;;;;21.21;100.00;102273.91;5213016;28;20532;-81
2021/07/22 07:10:26;;;;;;;49.70;23.67;;;;;;;21.17;100.00;102281.66;5209544;28;20056;-81
2021/07/22 07:12:57;;;;;;;47.75;23.50;;;;;;;21.25;100.00;102268.91;5213495;28;20539;-80
2021/07/22 07:15:28;;;;;;;55.33;23.67;;;;;;;21.36;100.00;102271.91;5216714;28;20033;-81
2021/07/22 07:18:03;;;;;;;47.83;23.52;;;;;;;21.21;100.00;102269.28;5215645;28;20032;-81
2021/07/22 07:20:33;;;;;;;45.75;23.15;;;;;;;21.44;100.00;102269.03;5192104;28;20029;-80
2021/07/22 07:23:04;;;;;;;49.40;24.38;;;;;;;21.56;100.00;102261.06;5210359;28;20392;-80
2021/07/22 07:25:34;;;;;;;41.88;22.00;;;;;;;21.63;100.00;102267.38;5216437;28;20160;-80
2021/07/22 07:28:05;;;;;;;46.88;21.35;;;;;;;21.82;100.00;102259.47;5198840;28;20368;-80
2021/07/22 07:30:35;;;;;;;44.13;21.98;;;;;;;22.06;100.00;102264.34;5211159;28;20029;-80
2021/07/22 07:33:07;;;;;;;41.85;20.00;;;;;;;22.16;100.00;102261.25;5210498;28;20020;-80
2021/07/22 07:35:39;;;;;;;40.63;20.25;;;;;;;22.39;100.00;102266.28;5196092;28;20112;-80
2021/07/22 07:38:10;;;;;;;42.00;20.75;;;;;;;22.24;100.00;102269.25;5216445;28;20033;-80
2021/07/22 07:40:40;;;;;;;42.53;20.58;;;;;;;22.42;100.00;102271.34;5213359;28;20390;-80
2021/07/22 07:43:16;;;;;;;44.95;21.08;;;;;;;22.52;100.00;102266.28;5192072;28;20187;-80
2021/07/22 07:45:46;;;;;;;43.47;21.17;;;;;;;22.57;100.00;102280.16;5192481;28;20048;-80
2021/07/22 07:48:17;;;;;;;43.92;21.67;;;;;;;22.54;100.00;102271.53;5216188;28;20017;-80
2021/07/22 07:50:47;;;;;;;36.00;18.52;;;;;;;22.65;100.00;102274.47;5214941;28;20029;-80
2021/07/22 07:53:19;;;;;;;39.72;19.58;;;;;;;22.75;100.00;102274.06;5211892;28;20039;-81
2021/07/22 07:55:50;;;;;;;43.72;19.63;;;;;;;23.09;100.00;102272.09;5210358;28;20392;-80
2021/07/22 07:58:20;;;;;;;41.45;19.02;;;;;;;23.00;100.00;102271.50;5202802;28;20041;-80
2021/07/22 08:00:51;;;;;;;37.08;19.67;;;;;;;23.12;100.00;102271.69;5214719;28;20076;-80
2021/07/22 08:03:21;;;;;;;41.05;19.63;;;;;;;23.08;100.00;102271.25;5224064;28;20048;-80
2021/07/22 08:05:52;;;;;;;40.33;19.70;;;;;;;23.45;100.00;102269.66;5216169;28;20033;-80
2021/07/22 08:08:22;;;;;;;36.53;19.38;;;;;;;23.55;100.00;102268.38;5197695;28;20033;-81
2021/07/22 08:10:58;;;;;;;40.13;20.30;;;;;;;23.45;100.00;102264.19;5190923;28;20045;-81
2021/07/22 08:13:28;;;;;;;37.33;19.42;;;;;;;23.40;100.00;102265.91;5209562;28;20381;-81
2021/07/22 08:15:59;;;;;;;32.53;17.13;;;;;;;23.44;100.00;102265.22;5214692;28;20021;-80
2021/07/22 08:18:29;;;;;;;35.22;18.63;;;;;;;23.40;100.00;102268.66;5198309;28;20072;-80
2021/07/22 08:20:59;;;;;;;33.08;17.20;;;;;;;23.86;100.00;102262.94;5211692;28;20467;-80
2021/07/22 08:23:30;;;;;;;31.73;17.08;;;;;;;23.84;100.00;102266.94;5209504;28;20496;-80
2021/07/22 08:26:00;;;;;;;31.25;16.27;;;;;;;23.95;100.00;102258.03;5212035;28;20040;-80
2021/07/22 08:28:31;;;;;;;29.98;15.32;;;;;;;24.00;100.00;102256.31;5202527;28;20033;-80
2021/07/22 08:31:03;;;;;;;30.58;15.40;;;;;;;23.85;100.00;102268.66;5209807;28;20056;-80
2021/07/22 08:33:33;;;;;;;36.58;17.80;;;;;;;23.90;100.00;102271.56;5197848;28;20028;-80
2021/07/22 08:36:04;;;;;;;36.13;17.27;;;;;;;23.87;100.00;102261.03;5197948;28;20043;-81
2021/07/22 08:38:34;;;;;;;34.03;16.27;;;;;;;23.83;100.00;102262.53;5209489;28;20094;-80
2021/07/22 08:41:06;;;;;;;33.80;16.35;;;;;;;23.98;100.00;102255.69;5190032;28;20057;-80
2021/07/22 08:43:38;;;;;;;32.00;15.80;;;;;;;24.10;100.00;102252.22;5214080;28;20411;-80
2021/07/22 08:46:10;;;;;;;32.72;16.52;;;;;;;24.19;100.00;102251.72;5215542;28;20037;-81
2021/07/22 08:48:40;;;;;;;36.03;16.40;;;;;;;24.11;100.00;102254.75;5212980;28;20056;-81
2021/07/22 08:51:11;;;;;;;28.88;14.20;;;;;;;23.92;100.00;102251.09;5190329;28;20083;-80
2021/07/22 08:53:42;;;;;;;34.15;15.05;;;;;;;23.67;100.00;102252.94;5210789;28;20484;-80
2021/07/22 08:56:12;;;;;;;39.13;16.77;;;;;;;23.79;100.00;102253.91;5200893;28;20112;-80
2021/07/22 08:58:43;;;;;;;35.40;15.70;;;;;;;23.99;100.00;102251.88;5219138;28;20094;-80
2021/07/22 09:01:16;;;;;;;28.50;13.60;;;;;;;24.14;100.00;102256.19;5205265;28;20112;-81
2021/07/22 09:03:47;;;;;;;26.75;14.07;;;;;;;24.29;100.00;102254.81;5220382;28;20059;-80
2021/07/22 09:06:19;;;;;;;23.80;13.05;;;;;;;24.46;100.00;102243.31;5197177;28;20067;-81
2021/07/22 09:08:50;;;;;;;23.60;13.13;;;;;;;24.37;100.00;102252.91;5201207;28;20021;-80
2021/07/22 09:11:21;;;;;;;25.67;13.27;;;;;;;24.50;100.00;102250.88;5215048;28;20017;-81
2021/07/22 09:14:09;;;;;;;27.08;13.07;;;;;;;24.61;100.00;102248.47;5213122;28;20086;-80
2021/07/22 09:16:40;;;;;;;26.55;13.57;;;;;;;24.66;100.00;102245.88;5213092;28;20048;-81
2021/07/22 09:19:30;;;;;;;26.50;14.05;;;;;;;24.67;100.00;102250.28;5217560;28;20029;-81
2021/07/22 09:22:03;;;;;;;28.08;12.55;;;;;;;24.61;100.00;102246.56;5210142;28;20029;-80
2021/07/22 09:24:54;;;;;;;33.92;12.50;;;;;;;24.59;100.00;102245.09;5213990;28;20032;-80
2021/07/22 09:27:39;;;;;;;21.55;11.35;;;;;;;24.57;100.00;102248.06;5197228;28;20075;-80
2021/07/22 09:30:15;;;;;;;24.30;13.05;;;;;;;24.64;100.00;102242.50;5194029;28;20154;-80
2021/07/22 09:32:48;;;;;;;30.92;13.93;;;;;;;25.09;100.00;102247.75;5213364;28;20033;-81
2021/07/22 09:35:20;;;;;;;28.90;14.50;;;;;;;25.02;100.00;102250.56;5218447;28;20033;-81
2021/07/22 09:37:53;;;;;;;22.42;11.48;;;;;;;25.09;100.00;102256.00;5218582;28;20316;-81
2021/07/22 09:40:24;;;;;;;18.15;10.77;;;;;;;25.31;100.00;102246.22;5213525;28;20035;-81
2021/07/22 09:42:57;;;;;;;17.95;10.45;;;;;;;25.10;100.00;102253.00;5212256;28;20037;-81
2021/07/22 09:45:31;;;;;;;22.45;12.25;;;;;;;25.12;100.00;102244.56;5215284;28;20030;-81
2021/07/22 09:48:20;;;;;;;26.25;11.15;;;;;;;25.61;100.00;102250.91;5218738;28;20045;-81
2021/07/22 09:50:52;;;;;;;27.30;11.90;;;;;;;25.85;100.00;102249.94;5199660;28;20029;-81
2021/07/22 09:53:25;;;;;;;22.73;10.77;;;;;;;25.87;100.00;102252.47;5180517;28;20079;-81
2021/07/22 09:55:56;;;;;;;22.77;9.57;;;;;;;25.42;100.00;102250.94;5190166;28;20033;-82
2021/07/22 09:58:28;;;;;;;21.27;10.15;;;;;;;25.32;100.00;102250.63;5216647;28;20025;-81
2021/07/22 10:01:00;;;;;;;16.38;9.32;;;;;;;25.33;100.00;102243.25;5210840;28;20033;-81
2021/07/22 10:03:33;;;;;;;20.98;9.68;;;;;;;25.35;100.00;102247.41;5225338;28;20629;-81
2021/07/22 10:06:06;;;;;;;16.35;9.63;;;;;;;25.41;100.00;102243.78;5215443;28;20065;-81
2021/07/22 10:08:38;;;;;;;18.17;10.10;;;;;;;25.99;100.00;102243.16;5200254;28;20037;-81
2021/07/22 10:11:08;;;;;;;19.83;10.05;;;;;;;26.03;94.40;102243.53;5211972;28;20031;-81
2021/07/22 10:13:42;;;;;;;19.90;9.13;;;;;;;26.24;86.52;102242.13;5211863;28;20408;-80
2021/07/22 10:16:17;;;;;;;12.73;7.88;;;;;;;26.27;74.96;102236.16;5215239;28;20040;-81
2021/07/22 10:18:53;;;;;;;15.27;7.68;;;;;;;26.21;100.00;102234.38;5192909;28;20388;-81
2021/07/22 10:21:24;;;;;;;14.48;7.88;;;;;;;26.49;89.65;102229.00;5210838;28;20029;-81
2021/07/22 10:23:55;;;;;;;17.92;8.50;;;;;;;26.74;77.27;102231.50;5212065;28;20100;-81
2021/07/22 10:26:26;;;;;;;18.55;8.30;;;;;;;26.86;81.36;102228.75;5213772;28;20024;-81
2021/07/22 10:28:57;;;;;;;12.68;7.80;;;;;;;26.98;82.80;102224.06;5224700;28;20344;-81
2021/07/22 10:31:28;;;;;;;17.25;10.00;;;;;;;26.91;79.34;102233.53;5210750;28;20082;-81
2021/07/22 10:34:00;;;;;;;16.45;9.23;;;;;;;26.72;82.99;102219.91;5215343;28;20026;-81
2021/07/22 10:36:31;;;;;;;20.63;10.00;;;;;;;26.57;96.44;102223.16;5217438;28;20029;-81
2021/07/22 10:39:01;;;;;;;26.73;9.88;;;;;;;26.32;100.00;102214.28;5215016;28;20037;-81
2021/07/22 10:41:35;;;;;;;16.65;9.23;;;;;;;26.21;89.40;102215.13;5190583;28;20029;-82
2021/07/22 10:44:14;;;;;;;15.40;8.02;;;;;;;25.99;84.00;102218.41;5211821;28;20487;-81
2021/07/22 10:46:56;;;;;;;17.35;9.88;;;;;;;25.79;96.38;102213.22;5212523;28;20048;-81
2021/07/22 10:49:46;;;;;;;17.75;10.07;;;;;;;26.20;86.17;102211.50;5210242;28;20025;-81
2021/07/22 10:52:57;;;;;;;18.30;9.18;;;;;;;26.15;100.00;102213.28;5210946;28;20080;-81
2021/07/22 10:55:42;;;;;;;19.33;9.73;;;;;;;26.42;90.33;102195.28;5211524;28;20093;-81
2021/07/22 10:58:23;;;;;;;14.45;8.38;;;;;;;26.66;91.33;102206.25;5213112;28;20087;-81
2021/07/22 11:00:53;;;;;;;17.73;10.65;;;;;;;26.67;93.30;102205.22;5209922;28;20048;-81
2021/07/22 11:03:33;;;;;;;18.13;10.70;;;;;;;26.28;86.16;102204.81;5206096;28;20079;-81
2021/07/22 11:06:10;;;;;;;17.63;9.45;;;;;;;26.38;91.96;102206.97;5203671;28;20058;-81
2021/07/22 11:08:43;;;;;;;17.52;9.93;;;;;;;26.32;85.30;102209.59;5217339;28;20106;-81
2021/07/22 11:11:15;;;;;;;17.40;10.15;;;;;;;26.40;88.98;102196.56;5212298;28;20029;-81
2021/07/22 11:13:48;;;;;;;20.30;11.18;;;;;;;26.77;86.66;102199.94;5189080;28;20030;-81
2021/07/22 11:16:24;;;;;;;22.50;11.23;;;;;;;26.96;75.10;102200.59;5215421;28;20452;-81
2021/07/22 11:18:56;;;;;;;21.63;10.18;;;;;;;26.84;71.21;102187.69;5193060;28;20479;-81
2021/07/22 11:21:29;;;;;;;19.90;8.68;;;;;;;26.45;78.51;102188.47;5192372;28;20037;-81